Time;durP1;ratioP1;P1;durP2;ratioP2;P2;SDS_P1;SDS_P2;PMS_P1;PMS_P2;Temp;Humidity;BMP_temperature;BMP_pressure;BME280_temperature;BME280_humidity;BME280_pressure;Samples;Min_cycle;Max_cycle;Signal;HPM_P1;HPM_P2
2023/02/26 00:01:39;;;;;;;3.57;2.63;;;;;;;0.07;84.05;97641.97;5051816;28;20234;-76
2023/02/26 00:04:07;;;;;;;5.23;2.20;;;;;;;0.03;85.34;97643.84;5051638;28;20239;-75
2023/02/26 00:06:37;;;;;;;3.43;2.40;;;;;;;-0.06;85.71;97644.16;5051363;28;20208;-76
2023/02/26 00:09:05;;;;;;;3.90;2.07;;;;;;;-0.18;86.09;97645.47;5052041;28;20205;-76
2023/02/26 00:11:34;;;;;;;6.07;2.37;;;;;;;-0.29;87.08;97651.06;5051735;28;20219;-76
2023/02/26 00:14:00;;;;;;;4.30;2.47;;;;;;;-0.22;85.61;97652.53;5051676;28;20224;-76
2023/02/26 00:16:30;;;;;;;3.03;2.60;;;;;;;-0.28;85.61;97656.16;5051174;28;20238;-76
2023/02/26 00:18:59;;;;;;;5.23;2.40;;;;;;;-0.24;85.72;97656.06;5051346;28;20589;-76
2023/02/26 00:21:27;;;;;;;3.50;2.50;;;;;;;-0.28;85.12;97650.97;5051707;28;20223;-77
2023/02/26 00:23:53;;;;;;;3.43;2.40;;;;;;;-0.33;87.29;97661.59;5051428;28;20741;-77
2023/02/26 00:26:20;;;;;;;3.13;2.30;;;;;;;-0.45;87.36;97667.19;5051360;28;20216;-77
2023/02/26 00:28:49;;;;;;;3.37;2.50;;;;;;;-0.44;87.47;97664.53;5051561;28;20208;-76
2023/02/26 00:31:17;;;;;;;3.60;2.40;;;;;;;-0.38;86.36;97660.91;5051424;28;20673;-76
2023/02/26 00:33:44;;;;;;;3.03;2.60;;;;;;;-0.33;86.45;97657.22;5067507;22;20228;-85
2023/02/26 00:36:20;;;;;;;2.43;2.20;;;;;;;-0.34;86.00;97658.13;5071166;28;20199;-83
2023/02/26 00:39:01;;;;;;;4.17;2.47;;;;;;;-0.35;85.87;97655.59;5072012;28;20685;-84
2023/02/26 00:41:28;;;;;;;3.27;2.47;;;;;;;-0.36;84.97;97659.94;5072167;28;20207;-84
2023/02/26 00:43:57;;;;;;;2.90;2.13;;;;;;;-0.52;86.40;97663.94;5072317;28;20585;-84
2023/02/26 00:46:33;;;;;;;3.53;2.30;;;;;;;-0.55;86.34;97666.63;5071506;28;20214;-84
2023/02/26 00:49:08;;;;;;;3.03;2.27;;;;;;;-0.55;87.27;97668.38;5071885;28;20216;-84
2023/02/26 00:51:45;;;;;;;3.20;2.10;;;;;;;-0.53;86.69;97669.19;5071699;28;20219;-86
2023/02/26 00:54:19;;;;;;;4.07;2.57;;;;;;;-0.65;87.09;97666.97;5071379;28;20227;-86
2023/02/26 00:56:45;;;;;;;3.43;2.10;;;;;;;-0.71;87.19;97667.19;5071222;28;20212;-85
2023/02/26 00:59:13;;;;;;;6.40;2.20;;;;;;;-0.71;87.27;97665.44;5071361;28;20208;-85
2023/02/26 01:01:40;;;;;;;3.17;2.57;;;;;;;-0.65;87.10;97669.56;5071625;28;20212;-85
2023/02/26 01:04:07;;;;;;;4.27;2.30;;;;;;;-0.72;86.91;97665.50;5071181;28;20239;-85
2023/02/26 01:06:38;;;;;;;3.70;2.57;;;;;;;-0.78;87.66;97673.47;5071019;28;20692;-85
2023/02/26 01:09:15;;;;;;;3.53;2.23;;;;;;;-0.86;88.13;97680.66;5071598;28;20208;-85
2023/02/26 01:11:42;;;;;;;2.90;2.43;;;;;;;-0.94;89.20;97677.44;5071463;28;20210;-84
2023/02/26 01:14:09;;;;;;;3.47;2.13;;;;;;;-0.92;89.31;97676.50;5071355;28;20236;-85
2023/02/26 01:16:44;;;;;;;3.37;2.30;;;;;;;-1.01;89.64;97675.94;5070923;28;20211;-85
2023/02/26 01:19:20;;;;;;;2.53;2.00;;;;;;;-1.11;89.20;97669.34;5071165;28;20211;-85
2023/02/26 01:21:55;;;;;;;2.27;1.90;;;;;;;-1.18;90.51;97683.41;5072376;28;20214;-85
2023/02/26 01:24:24;;;;;;;3.23;2.13;;;;;;;-1.05;90.35;97679.53;5075114;28;20238;-85
2023/02/26 01:26:53;;;;;;;3.80;2.23;;;;;;;-1.07;90.35;97682.16;5074689;28;20691;-85
2023/02/26 01:29:20;;;;;;;3.23;2.40;;;;;;;-1.01;90.00;97675.94;5075003;28;20220;-85
2023/02/26 01:31:54;;;;;;;2.90;2.07;;;;;;;-1.07;90.13;97676.13;5075100;28;20219;-85
2023/02/26 01:34:26;;;;;;;6.30;2.40;;;;;;;-1.11;90.41;97669.34;5074942;28;20326;-85
2023/02/26 01:37:00;;;;;;;3.63;2.40;;;;;;;-1.09;90.22;97678.78;5074352;28;20227;-85
2023/02/26 01:39:32;;;;;;;3.17;2.33;;;;;;;-1.18;90.82;97688.59;5074883;28;20214;-85
2023/02/26 01:42:04;;;;;;;3.33;2.13;;;;;;;-1.18;90.46;97678.22;5074694;28;20214;-85
2023/02/26 01:44:39;;;;;;;6.00;2.30;;;;;;;-1.21;91.40;97678.28;5074434;28;20309;-85
2023/02/26 01:47:21;;;;;;;3.20;2.33;;;;;;;-1.18;90.88;97678.22;5074390;28;20207;-85
2023/02/26 01:49:48;;;;;;;2.53;2.30;;;;;;;-1.23;90.71;97690.47;5074409;28;20207;-85
2023/02/26 01:53:00;;;;;;;2.57;2.10;;;;;;;-1.27;91.64;97688.84;5074398;28;20564;-85
2023/02/26 01:55:29;;;;;;;3.03;2.03;;;;;;;-1.30;91.95;97688.94;5074450;28;20235;-85
2023/02/26 01:57:58;;;;;;;2.43;2.20;;;;;;;-1.25;91.99;97692.22;5073837;28;20234;-85
2023/02/26 02:00:25;;;;;;;4.50;2.50;;;;;;;-1.23;91.78;97680.94;5074084;28;20211;-85
2023/02/26 02:02:53;;;;;;;3.60;2.40;;;;;;;-1.31;91.27;97684.63;5074163;28;20546;-85
2023/02/26 02:05:25;;;;;;;3.63;2.13;;;;;;;-1.30;91.75;97688.94;5074021;28;20231;-85
2023/02/26 02:07:52;;;;;;;2.87;2.57;;;;;;;-1.36;91.57;97689.13;5074075;28;20213;-84
2023/02/26 02:10:19;;;;;;;3.67;2.07;;;;;;;-1.47;91.80;97680.81;5074096;28;20207;-85
2023/02/26 02:12:51;;;;;;;3.43;2.30;;;;;;;-1.51;92.09;97684.38;5074284;28;20218;-85
2023/02/26 02:15:25;;;;;;;2.73;2.23;;;;;;;-1.55;92.66;97698.31;5074083;28;20232;-85
2023/02/26 02:18:05;;;;;;;4.77;2.37;;;;;;;-1.47;92.80;97692.00;5074065;28;20231;-84
2023/02/26 02:20:52;;;;;;;2.80;2.20;;;;;;;-1.48;92.87;97698.09;5074429;28;20195;-85
2023/02/26 02:23:25;;;;;;;3.60;2.20;;;;;;;-1.53;92.73;97696.53;5074069;28;20207;-85
2023/02/26 02:26:30;;;;;;;3.80;2.50;;;;;;;-1.48;91.83;97694.69;5074108;28;20666;-84
2023/02/26 02:29:44;;;;;;;3.43;2.30;;;;;;;-1.54;91.78;97697.44;5074140;28;20199;-84
2023/02/26 02:32:16;;;;;;;2.60;2.30;;;;;;;-1.60;92.42;97706.22;5073905;28;20230;-84
2023/02/26 02:34:47;;;;;;;2.93;2.17;;;;;;;-1.65;93.19;97702.06;5072718;28;20596;-84
2023/02/26 02:37:19;;;;;;;2.37;2.13;;;;;;;-1.70;93.72;97709.13;5073423;28;20254;-85
2023/02/26 02:39:49;;;;;;;2.67;2.40;;;;;;;-1.74;93.63;97710.09;5073774;28;20226;-85
2023/02/26 02:42:25;;;;;;;2.30;2.10;;;;;;;-1.69;93.67;97721.16;5073656;28;20214;-84
2023/02/26 02:44:58;;;;;;;3.70;2.37;;;;;;;-1.64;92.84;97711.53;5073535;28;20219;-85
2023/02/26 02:47:28;;;;;;;8.47;2.57;;;;;;;-1.71;93.11;97715.19;5073161;28;20206;-85
2023/02/26 02:50:03;;;;;;;3.73;2.50;;;;;;;-1.68;93.06;97720.28;5073511;28;20204;-85
2023/02/26 02:52:35;;;;;;;4.13;2.27;;;;;;;-1.68;93.23;97721.13;5073536;28;20215;-85
2023/02/26 02:55:05;;;;;;;3.83;1.80;;;;;;;-1.82;93.24;97730.16;5073450;28;20250;-85
2023/02/26 02:57:37;;;;;;;3.53;2.30;;;;;;;-1.98;95.52;97734.03;5072950;28;20285;-84
2023/02/26 03:00:09;;;;;;;3.17;2.27;;;;;;;-2.01;96.26;97728.97;5073619;28;20226;-85
2023/02/26 03:02:43;;;;;;;3.50;2.63;;;;;;;-2.02;97.01;97740.22;5073335;28;20696;-85
2023/02/26 03:05:10;;;;;;;3.80;2.40;;;;;;;-2.02;97.38;97742.81;5073215;28;20230;-85
2023/02/26 03:07:41;;;;;;;3.37;2.30;;;;;;;-2.02;97.42;97743.63;5072718;28;20204;-84
2023/02/26 03:10:09;;;;;;;3.07;2.50;;;;;;;-1.90;97.03;97742.47;5073053;28;20227;-85
2023/02/26 03:12:36;;;;;;;5.53;2.10;;;;;;;-1.70;95.94;97735.03;5073200;28;20213;-84
2023/02/26 03:15:03;;;;;;;4.17;2.40;;;;;;;-1.56;95.02;97738.06;5072970;28;20717;-85
2023/02/26 03:17:36;;;;;;;3.80;2.07;;;;;;;-1.50;94.28;97740.47;5072562;28;20237;-85
2023/02/26 03:20:17;;;;;;;4.97;2.50;;;;;;;-1.38;93.31;97735.81;5073095;28;20210;-85
2023/02/26 03:22:51;;;;;;;2.63;2.13;;;;;;;-1.37;91.76;97745.28;5073134;28;20635;-84
2023/02/26 03:25:22;;;;;;;3.33;2.13;;;;;;;-1.43;91.72;97734.22;5072892;28;20233;-85
2023/02/26 03:28:04;;;;;;;4.97;2.20;;;;;;;-1.42;92.18;97741.16;5072747;28;20222;-85
2023/02/26 03:30:37;;;;;;;3.93;2.33;;;;;;;-1.47;92.06;97738.66;5072846;28;20210;-84
2023/02/26 03:33:08;;;;;;;3.03;2.17;;;;;;;-1.60;92.10;97736.47;5073196;28;20218;-85
2023/02/26 03:35:44;;;;;;;2.70;2.20;;;;;;;-1.66;92.03;97741.81;5072677;28;20235;-84
2023/02/26 03:38:15;;;;;;;2.40;2.20;;;;;;;-1.64;92.31;97743.47;5072401;28;20234;-85
2023/02/26 03:40:47;;;;;;;4.03;2.17;;;;;;;-1.74;92.95;97754.13;5072754;28;20207;-85
2023/02/26 03:43:20;;;;;;;2.47;2.13;;;;;;;-1.74;93.28;97754.13;5072733;28;20214;-84
2023/02/26 03:45:50;;;;;;;3.67;2.07;;;;;;;-1.81;93.78;97744.81;5072258;28;20240;-85
2023/02/26 03:48:21;;;;;;;2.63;2.17;;;;;;;-1.87;94.51;97758.78;5072388;28;20208;-85
2023/02/26 03:50:52;;;;;;;4.13;2.10;;;;;;;-1.90;94.94;97758.03;5072248;28;20204;-85
2023/02/26 03:53:23;;;;;;;5.73;2.60;;;;;;;-1.99;96.34;97764.28;5072427;28;20218;-85
2023/02/26 03:55:55;;;;;;;4.27;2.40;;;;;;;-1.92;96.17;97767.56;5072160;28;20580;-85
2023/02/26 03:58:22;;;;;;;3.30;2.20;;;;;;;-1.94;96.85;97767.63;5072330;28;20242;-85
2023/02/26 04:00:56;;;;;;;4.37;2.70;;;;;;;-1.94;97.00;97775.38;5071978;28;20207;-85
2023/02/26 04:03:28;;;;;;;2.80;2.10;;;;;;;-1.97;96.86;97772.84;5072056;28;20306;-85
2023/02/26 04:05:57;;;;;;;3.60;2.20;;;;;;;-2.07;98.43;97775.72;5072169;28;20211;-84
2023/02/26 04:08:24;;;;;;;4.97;2.57;;;;;;;-2.10;100.00;97780.97;5071856;28;20214;-84
2023/02/26 04:10:54;;;;;;;4.40;2.47;;;;;;;-2.04;99.55;97780.81;5071889;28;20677;-84
2023/02/26 04:13:21;;;;;;;4.17;2.40;;;;;;;-2.16;100.00;97775.94;5072095;28;20217;-85
2023/02/26 04:15:47;;;;;;;3.20;2.63;;;;;;;-2.18;100.00;97777.72;5072016;28;20224;-84
2023/02/26 04:18:14;;;;;;;4.40;2.53;;;;;;;-2.23;100.00;97784.75;5071448;28;20731;-85
2023/02/26 04:20:41;;;;;;;3.13;2.60;;;;;;;-2.32;100.00;97782.41;5072107;28;20286;-85
2023/02/26 04:23:09;;;;;;;2.80;2.30;;;;;;;-2.28;100.00;97782.28;5071960;28;20207;-84
2023/02/26 04:25:35;;;;;;;4.63;2.67;;;;;;;-2.20;100.00;97779.50;5071559;28;20690;-84
2023/02/26 04:28:02;;;;;;;3.40;2.53;;;;;;;-2.23;100.00;97789.94;5071553;28;20204;-84
2023/02/26 04:30:28;;;;;;;3.03;2.43;;;;;;;-2.33;100.00;97780.72;5071633;28;20575;-84
2023/02/26 04:32:55;;;;;;;3.83;2.60;;;;;;;-2.37;100.00;97792.00;5071636;28;20207;-84
2023/02/26 04:35:21;;;;;;;4.40;2.80;;;;;;;-2.25;100.00;97787.41;5071257;28;20238;-83
2023/02/26 04:37:48;;;;;;;3.63;2.57;;;;;;;-2.24;100.00;97796.00;5071159;28;20730;-83
2023/02/26 04:40:16;;;;;;;3.90;2.23;;;;;;;-2.21;100.00;97798.53;5071471;28;20303;-83
2023/02/26 04:42:42;;;;;;;4.57;2.53;;;;;;;-2.23;100.00;97800.28;5071703;28;20234;-83
2023/02/26 04:45:10;;;;;;;4.20;3.13;;;;;;;-2.22;100.00;97802.84;5071474;28;20226;-83
2023/02/26 04:47:36;;;;;;;3.50;2.47;;;;;;;-2.19;100.00;97812.28;5071133;28;20208;-83
2023/02/26 04:50:03;;;;;;;3.50;2.43;;;;;;;-2.17;99.81;97811.34;5071886;28;20219;-83
2023/02/26 04:52:30;;;;;;;5.70;2.33;;;;;;;-2.15;99.87;97812.16;5071547;28;20204;-83
2023/02/26 04:54:56;;;;;;;3.47;2.40;;;;;;;-2.29;100.00;97810.78;5071549;28;20227;-85
2023/02/26 04:57:24;;;;;;;5.67;2.70;;;;;;;-2.27;100.00;97809.03;5073770;28;20203;-83
2023/02/26 04:59:51;;;;;;;4.53;2.60;;;;;;;-2.26;100.00;97814.13;5075484;28;20234;-86
2023/02/26 05:02:17;;;;;;;4.63;2.70;;;;;;;-2.37;100.00;97810.13;5075359;28;20210;-83
2023/02/26 05:04:44;;;;;;;4.03;2.70;;;;;;;-2.41;100.00;97809.34;5075478;28;20234;-86
2023/02/26 05:07:11;;;;;;;4.93;2.40;;;;;;;-2.48;100.00;97812.09;5075339;28;20213;-86
2023/02/26 05:09:37;;;;;;;5.17;3.23;;;;;;;-2.49;100.00;97823.34;5075715;28;20518;-83
2023/02/26 05:12:04;;;;;;;3.60;2.47;;;;;;;-2.45;100.00;97824.97;5075325;28;20208;-83
2023/02/26 05:14:32;;;;;;;3.77;2.70;;;;;;;-2.42;100.00;97830.06;5075405;28;20227;-83
2023/02/26 05:16:59;;;;;;;2.93;2.60;;;;;;;-2.23;100.00;97826.16;5075128;28;20218;-83
2023/02/26 05:19:25;;;;;;;4.33;2.73;;;;;;;-2.25;100.00;97822.78;5075105;28;20231;-86
2023/02/26 05:21:52;;;;;;;3.23;2.63;;;;;;;-2.24;100.00;97819.28;5075269;28;20673;-83
2023/02/26 05:24:18;;;;;;;3.20;2.23;;;;;;;-2.21;100.00;97820.06;5075256;28;20234;-83
2023/02/26 05:26:45;;;;;;;3.33;2.47;;;;;;;-2.28;100.00;97828.88;5074925;28;20230;-83
2023/02/26 05:29:12;;;;;;;3.60;2.50;;;;;;;-2.28;100.00;97833.22;5075137;28;20626;-83
2023/02/26 05:31:40;;;;;;;3.13;2.73;;;;;;;-2.30;100.00;97829.78;5074888;28;20215;-86
2023/02/26 05:34:07;;;;;;;3.73;2.73;;;;;;;-2.40;100.00;97838.66;5074938;28;20242;-86
2023/02/26 05:36:33;;;;;;;4.53;2.63;;;;;;;-2.44;100.00;97842.19;5074824;28;20214;-84
2023/02/26 05:39:00;;;;;;;2.80;2.30;;;;;;;-2.43;100.00;97849.06;5074676;28;20231;-84
2023/02/26 05:41:26;;;;;;;3.70;2.63;;;;;;;-2.57;100.00;97856.31;5074773;28;20235;-84
2023/02/26 05:43:53;;;;;;;3.90;2.83;;;;;;;-2.55;100.00;97854.53;5074678;28;20223;-83
2023/02/26 05:46:20;;;;;;;3.70;2.73;;;;;;;-2.60;100.00;97846.00;5074412;28;20207;-83
2023/02/26 05:48:47;;;;;;;3.73;2.70;;;;;;;-2.59;100.00;97863.22;5074847;28;20207;-84
2023/02/26 05:51:14;;;;;;;3.00;2.70;;;;;;;-2.65;100.00;97874.56;5074821;28;20216;-83
2023/02/26 05:53:40;;;;;;;3.70;2.83;;;;;;;-2.57;100.00;97877.00;5074580;28;20218;-83
2023/02/26 05:56:07;;;;;;;4.53;2.37;;;;;;;-2.54;100.00;97864.84;5074282;28;20214;-83
2023/02/26 05:58:34;;;;;;;4.67;2.60;;;;;;;-2.52;100.00;97864.81;5074265;28;20238;-83
2023/02/26 06:01:01;;;;;;;3.27;2.60;;;;;;;-2.61;100.00;97875.34;5074488;28;20682;-83
2023/02/26 06:03:27;;;;;;;5.43;2.80;;;;;;;-2.60;100.00;97877.91;5074445;28;20218;-83
2023/02/26 06:05:55;;;;;;;3.63;2.63;;;;;;;-2.74;100.00;97885.13;5074502;28;20207;-83
2023/02/26 06:08:22;;;;;;;3.40;2.53;;;;;;;-2.76;100.00;97892.03;5073740;28;20571;-85
2023/02/26 06:10:49;;;;;;;6.23;2.60;;;;;;;-2.79;100.00;97886.94;5074249;28;20217;-85
2023/02/26 06:13:16;;;;;;;2.90;2.43;;;;;;;-2.77;100.00;97899.81;5074086;28;20215;-83
2023/02/26 06:15:43;;;;;;;3.63;2.40;;;;;;;-2.89;100.00;97897.53;5074340;28;20249;-83
2023/02/26 06:18:09;;;;;;;5.17;2.60;;;;;;;-2.93;100.00;97906.22;5073486;28;20204;-86
2023/02/26 06:20:36;;;;;;;4.90;3.10;;;;;;;-2.89;100.00;97910.44;5074079;28;20236;-83
2023/02/26 06:23:04;;;;;;;3.63;2.10;;;;;;;-2.93;100.00;97913.97;5074231;28;20649;-82
2023/02/26 06:25:30;;;;;;;4.57;2.70;;;;;;;-2.94;100.00;97920.84;5073812;28;20621;-82
2023/02/26 06:27:57;;;;;;;5.37;2.83;;;;;;;-2.90;100.00;97924.22;5073666;28;20220;-83
2023/02/26 06:30:23;;;;;;;4.53;2.50;;;;;;;-2.86;100.00;97931.06;5073746;28;20712;-83
2023/02/26 06:32:50;;;;;;;3.27;2.40;;;;;;;-3.02;100.00;97930.50;5073802;28;20590;-85
2023/02/26 06:35:16;;;;;;;4.73;2.80;;;;;;;-3.15;100.00;97948.84;5073859;28;20227;-83
2023/02/26 06:37:43;;;;;;;5.40;3.03;;;;;;;-3.16;100.00;97952.31;5073508;28;20217;-85
2023/02/26 06:40:13;;;;;;;5.10;3.10;;;;;;;-3.15;100.00;97954.00;5073457;28;20231;-85
2023/02/26 06:42:40;;;;;;;6.93;3.00;;;;;;;-3.06;100.00;97949.53;5073592;28;20211;-85
2023/02/26 06:45:07;;;;;;;3.93;2.90;;;;;;;-2.89;100.00;97957.81;5073622;28;20610;-82
2023/02/26 06:47:33;;;;;;;4.10;2.27;;;;;;;-2.79;100.00;97958.50;5073234;28;20213;-85
2023/02/26 06:50:01;;;;;;;4.50;2.83;;;;;;;-2.69;100.00;97960.84;5073419;28;20214;-85
2023/02/26 06:52:28;;;;;;;6.17;3.33;;;;;;;-2.59;100.00;97971.88;5073357;28;20222;-83
2023/02/26 06:54:54;;;;;;;3.83;2.83;;;;;;;-2.54;100.00;97964.88;5073173;28;20234;-83
2023/02/26 06:57:22;;;;;;;4.13;2.47;;;;;;;-2.37;100.00;97976.59;5073179;28;20211;-83
2023/02/26 06:59:49;;;;;;;3.80;2.50;;;;;;;-2.24;100.00;97979.75;5073330;28;20227;-83
2023/02/26 07:02:19;;;;;;;5.83;3.20;;;;;;;-2.04;100.00;97987.94;5073161;28;20265;-83
2023/02/26 07:04:45;;;;;;;4.40;2.77;;;;;;;-2.00;100.00;97984.41;5073176;28;20223;-83
2023/02/26 07:07:12;;;;;;;3.33;2.53;;;;;;;-1.91;100.00;97973.84;5072929;28;20207;-83
2023/02/26 07:09:39;;;;;;;4.10;2.60;;;;;;;-1.79;100.00;97976.16;5073018;28;20222;-83
2023/02/26 07:12:06;;;;;;;4.50;2.70;;;;;;;-1.64;100.00;97978.38;5073195;28;20362;-83
2023/02/26 07:14:34;;;;;;;3.53;2.57;;;;;;;-1.58;99.79;97970.47;5073195;28;20256;-82
2023/02/26 07:17:01;;;;;;;4.30;2.80;;;;;;;-1.51;98.19;97964.22;5072565;28;20207;-82
2023/02/26 07:19:27;;;;;;;3.77;2.33;;;;;;;-1.64;98.56;97968.00;5072123;28;20227;-84
2023/02/26 07:21:54;;;;;;;4.57;2.63;;;;;;;-1.56;97.88;97973.84;5075789;28;20207;-77
2023/02/26 07:24:21;;;;;;;4.20;2.53;;;;;;;-1.51;98.19;97977.19;5072930;28;20578;-84
2023/02/26 07:26:47;;;;;;;4.13;2.20;;;;;;;-1.37;97.88;97977.69;5073702;28;20211;-88
2023/02/26 07:29:14;;;;;;;4.43;2.33;;;;;;;-1.30;96.02;97972.31;5076155;28;20203;-87
2023/02/26 07:31:42;;;;;;;3.17;2.27;;;;;;;-1.30;95.15;97974.09;5075716;28;20256;-83
2023/02/26 07:34:09;;;;;;;4.53;2.50;;;;;;;-1.27;95.49;97971.41;5072376;28;20241;-82
2023/02/26 07:36:35;;;;;;;5.03;2.67;;;;;;;-1.18;94.72;97973.78;5071431;28;20204;-84
2023/02/26 07:39:02;;;;;;;3.73;2.67;;;;;;;-1.11;95.07;97978.75;5072203;28;20550;-83
2023/02/26 07:41:28;;;;;;;4.30;2.87;;;;;;;-1.16;95.01;97978.00;5072141;28;20211;-83
2023/02/26 07:43:55;;;;;;;3.63;2.43;;;;;;;-1.08;92.95;97980.41;5072122;28;20581;-83
2023/02/26 07:46:21;;;;;;;4.00;2.10;;;;;;;-1.13;93.46;97987.44;5072004;28;20203;-82
2023/02/26 07:48:49;;;;;;;3.60;2.50;;;;;;;-1.05;92.87;97986.34;5071993;28;20209;-83
2023/02/26 07:51:16;;;;;;;2.80;2.37;;;;;;;-1.11;93.19;97990.88;5071842;28;20273;-82
2023/02/26 07:53:42;;;;;;;2.97;2.20;;;;;;;-1.07;93.35;97992.47;5072294;28;20223;-82
2023/02/26 07:56:09;;;;;;;4.27;2.03;;;;;;;-1.04;93.61;97989.81;5071787;28;20216;-83
2023/02/26 07:58:38;;;;;;;3.63;2.47;;;;;;;-0.94;94.17;98007.69;5071973;28;20199;-77
2023/02/26 08:01:05;;;;;;;4.03;2.60;;;;;;;-0.88;92.86;97993.69;5070134;28;20207;-80
2023/02/26 08:03:32;;;;;;;3.73;2.27;;;;;;;-0.79;92.34;97993.47;5070162;28;20207;-80
2023/02/26 08:06:00;;;;;;;4.00;2.63;;;;;;;-0.75;92.10;98000.28;5070643;28;20200;-80
2023/02/26 08:08:26;;;;;;;4.73;2.17;;;;;;;-0.73;90.81;97998.50;5068456;28;20215;-80
2023/02/26 08:10:53;;;;;;;3.03;2.33;;;;;;;-0.75;90.66;97997.69;5061064;28;20216;-80
2023/02/26 08:13:20;;;;;;;7.43;2.50;;;;;;;-0.72;89.73;97990.66;5064938;28;20225;-80
2023/02/26 08:15:47;;;;;;;3.10;2.23;;;;;;;-0.74;89.54;97992.44;5051559;28;20737;-80
2023/02/26 08:18:14;;;;;;;2.17;1.97;;;;;;;-0.72;90.40;97995.00;5063399;28;20211;-80
2023/02/26 08:20:40;;;;;;;2.83;2.20;;;;;;;-0.60;88.96;98005.03;5069618;28;20223;-80
2023/02/26 08:23:08;;;;;;;4.63;2.30;;;;;;;-0.51;89.05;97989.22;5054602;28;20299;-80
2023/02/26 08:25:35;;;;;;;2.47;2.07;;;;;;;-0.54;88.23;97990.16;5054071;28;20240;-80
2023/02/26 08:28:02;;;;;;;5.63;2.20;;;;;;;-0.43;88.39;97995.88;5052003;28;20209;-80
2023/02/26 08:30:28;;;;;;;5.07;1.97;;;;;;;-0.51;88.36;98005.63;5057804;28;20213;-80
2023/02/26 08:32:55;;;;;;;1.93;1.80;;;;;;;-0.59;89.68;98007.59;5068000;28;20222;-80
2023/02/26 08:35:22;;;;;;;4.20;2.47;;;;;;;-0.51;89.38;98008.25;5064218;28;20255;-80
2023/02/26 08:37:49;;;;;;;2.63;2.13;;;;;;;-0.39;89.24;98009.66;5060914;28;20208;-80
2023/02/26 08:40:17;;;;;;;3.83;2.00;;;;;;;-0.40;88.69;98010.53;5065151;28;20229;-80
2023/02/26 08:42:43;;;;;;;3.40;2.10;;;;;;;-0.34;88.65;98012.94;5074090;28;20209;-82
2023/02/26 08:45:10;;;;;;;3.03;1.93;;;;;;;-0.28;88.85;98009.28;5075381;28;20214;-82
2023/02/26 08:47:40;;;;;;;4.50;2.03;;;;;;;-0.29;88.18;98014.53;5067606;28;20211;-83
2023/02/26 08:50:07;;;;;;;3.53;2.00;;;;;;;-0.31;90.46;98018.06;5064851;28;20199;-82
2023/02/26 08:52:34;;;;;;;3.87;2.03;;;;;;;-0.33;91.70;98030.25;5076023;28;20200;-81
2023/02/26 08:55:00;;;;;;;4.00;2.43;;;;;;;-0.28;92.27;98047.41;5076925;28;20218;-81
2023/02/26 08:57:28;;;;;;;3.33;1.80;;;;;;;-0.24;92.32;98048.16;5076737;28;20200;-81
2023/02/26 08:59:54;;;;;;;2.53;2.07;;;;;;;-0.28;93.08;98045.63;5076895;28;20280;-81
2023/02/26 09:02:21;;;;;;;2.80;1.87;;;;;;;-0.22;92.49;98044.63;5076606;28;20195;-81
2023/02/26 09:04:47;;;;;;;1.93;1.73;;;;;;;-0.28;91.90;98061.22;5070980;28;20236;-79
2023/02/26 09:07:14;;;;;;;3.63;2.47;;;;;;;-0.28;92.26;98059.50;5074800;28;20185;-78
2023/02/26 09:09:40;;;;;;;3.83;2.00;;;;;;;-0.28;92.55;98053.41;5075064;28;20194;-79
2023/02/26 09:12:07;;;;;;;3.53;2.43;;;;;;;-0.21;93.85;98064.50;5076492;28;20210;-79
2023/02/26 09:14:35;;;;;;;2.53;1.90;;;;;;;-0.13;93.98;98066.00;5073330;28;20225;-79
2023/02/26 09:17:01;;;;;;;3.27;1.83;;;;;;;-0.01;92.63;98062.19;5073806;28;20568;-82
2023/02/26 09:19:28;;;;;;;2.53;1.80;;;;;;;-0.03;91.95;98057.06;5073187;28;20308;-79
2023/02/26 09:21:54;;;;;;;3.43;1.97;;;;;;;0.02;92.10;98062.94;5069253;28;20212;-79
2023/02/26 09:24:21;;;;;;;2.47;2.00;;;;;;;-0.07;91.27;98060.63;5072019;28;20228;-78
2023/02/26 09:26:47;;;;;;;2.47;2.00;;;;;;;0.01;91.98;98063.00;5076274;28;20200;-77
2023/02/26 09:29:14;;;;;;;4.33;1.97;;;;;;;0.01;92.10;98063.00;5076776;28;20212;-77
2023/02/26 09:31:42;;;;;;;2.37;1.77;;;;;;;0.00;93.94;98067.34;5076581;28;20192;-79
2023/02/26 09:34:08;;;;;;;2.17;1.87;;;;;;;-0.01;93.70;98080.38;5076426;28;20223;-81
2023/02/26 09:36:36;;;;;;;2.58;2.30;;;;;;;0.03;92.88;98077.66;5075234;28;20434;-77
2023/02/26 09:39:03;;;;;;;4.00;2.40;;;;;;;0.01;92.84;98079.44;5067036;28;20765;-76
2023/02/26 09:41:32;;;;;;;6.37;2.10;;;;;;;0.03;94.29;98082.88;5054773;28;20205;-79
2023/02/26 09:44:16;;;;;;;2.87;1.80;;;;;;;0.04;94.50;98088.88;5057808;28;20235;-80
2023/02/26 09:46:53;;;;;;;2.73;2.00;;;;;;;-0.03;93.09;98093.44;5057578;28;20544;-79
2023/02/26 09:49:28;;;;;;;3.10;2.20;;;;;;;-0.02;93.39;98089.94;5058867;28;20207;-79
2023/02/26 09:51:59;;;;;;;2.60;2.10;;;;;;;-0.01;93.42;98096.81;5054622;28;20207;-79
2023/02/26 09:54:29;;;;;;;3.93;2.00;;;;;;;0.00;93.78;98098.53;5054495;28;20228;-78
2023/02/26 09:56:59;;;;;;;4.70;2.30;;;;;;;0.00;94.15;98102.88;5054212;28;20212;-79
2023/02/26 09:59:33;;;;;;;5.80;2.10;;;;;;;-0.10;94.19;98094.47;5052806;28;20236;-79
2023/02/26 10:02:07;;;;;;;3.30;2.07;;;;;;;-0.15;95.25;98103.28;5054853;28;20282;-79
2023/02/26 10:04:50;;;;;;;2.70;2.37;;;;;;;-0.13;96.18;98112.75;5054984;28;20254;-79
2023/02/26 10:07:25;;;;;;;2.73;2.00;;;;;;;-0.11;97.10;98116.16;5054771;28;20227;-79
2023/02/26 10:10:11;;;;;;;4.80;2.27;;;;;;;-0.05;97.74;98121.16;5054655;28;20192;-79
2023/02/26 10:12:42;;;;;;;3.87;2.57;;;;;;;0.01;97.50;98128.78;5054537;28;20216;-78
2023/02/26 10:15:14;;;;;;;3.70;2.10;;;;;;;0.04;97.16;98118.34;5054498;28;20248;-79
2023/02/26 10:17:52;;;;;;;2.90;1.90;;;;;;;0.15;96.64;98124.09;5054006;28;20209;-81
2023/02/26 10:20:24;;;;;;;2.43;1.80;;;;;;;0.28;97.34;98130.63;5053768;28;20231;-80
2023/02/26 10:22:58;;;;;;;2.10;1.90;;;;;;;0.39;94.76;98120.75;5053867;28;20217;-82
2023/02/26 10:25:31;;;;;;;2.03;1.80;;;;;;;0.50;94.04;98113.50;5053772;28;20375;-80
2023/02/26 10:28:07;;;;;;;4.00;1.63;;;;;;;0.59;94.16;98118.44;5054031;28;20207;-82
2023/02/26 10:30:37;;;;;;;3.77;1.77;;;;;;;0.77;94.42;98125.69;5053975;28;20193;-82
2023/02/26 10:33:15;;;;;;;1.93;1.73;;;;;;;0.92;91.69;98111.34;5053758;28;20580;-79
2023/02/26 10:35:47;;;;;;;3.93;1.47;;;;;;;0.93;89.80;98111.28;5052757;28;20239;-80
2023/02/26 10:38:17;;;;;;;2.23;1.60;;;;;;;0.96;89.89;98113.78;5053677;28;20209;-80
2023/02/26 10:40:49;;;;;;;2.43;1.63;;;;;;;1.00;88.06;98107.56;5053780;28;20259;-80
2023/02/26 10:43:19;;;;;;;2.40;1.30;;;;;;;1.07;89.75;98114.31;5054008;28;20210;-84
2023/02/26 10:45:58;;;;;;;2.60;1.53;;;;;;;1.12;90.77;98117.59;5053208;28;20229;-81
2023/02/26 10:48:40;;;;;;;1.85;1.70;;;;;;;1.28;89.35;98108.38;5054153;28;20442;-79
2023/02/26 10:51:12;;;;;;;2.63;1.87;;;;;;;1.32;88.97;98115.22;5070743;28;20203;-83
2023/02/26 10:53:42;;;;;;;3.07;1.83;;;;;;;1.24;90.09;98117.19;5070126;28;20210;-81
2023/02/26 10:56:14;;;;;;;1.73;1.60;;;;;;;1.26;87.45;98107.59;5069953;28;20207;-78
2023/02/26 10:58:41;;;;;;;1.43;1.30;;;;;;;1.12;85.20;98107.19;5060337;28;20211;-81
2023/02/26 11:01:14;;;;;;;4.30;1.70;;;;;;;1.16;87.14;98119.19;5072152;28;20229;-77
2023/02/26 11:03:44;;;;;;;1.87;1.47;;;;;;;1.10;86.67;98113.38;5069670;28;20221;-79
2023/02/26 11:06:18;;;;;;;1.57;1.47;;;;;;;1.03;87.59;98123.09;5070551;28;20226;-79
2023/02/26 11:08:49;;;;;;;1.87;1.50;;;;;;;0.93;89.00;98124.28;5072088;28;20625;-79
2023/02/26 11:11:42;;;;;;;1.87;1.50;;;;;;;0.98;91.80;98139.78;5071083;28;20211;-79
2023/02/26 11:14:10;;;;;;;2.13;1.43;;;;;;;0.98;90.93;98138.00;5071530;28;20227;-80
2023/02/26 11:16:42;;;;;;;2.90;1.60;;;;;;;1.10;90.18;98123.78;5070498;28;20217;-79
2023/02/26 11:19:14;;;;;;;2.03;1.50;;;;;;;1.22;89.39;98123.38;5069990;28;20697;-79
2023/02/26 11:21:45;;;;;;;1.63;1.33;;;;;;;1.42;88.87;98113.16;5072065;28;20255;-79
2023/02/26 11:24:18;;;;;;;1.70;1.60;;;;;;;1.63;87.17;98112.41;5070557;28;20235;-80
2023/02/26 11:26:47;;;;;;;1.97;1.40;;;;;;;1.70;85.77;98111.28;5069465;28;20301;-80
2023/02/26 11:29:17;;;;;;;1.10;1.10;;;;;;;1.76;86.90;98104.13;5071265;28;20566;-79
2023/02/26 11:31:47;;;;;;;1.43;1.33;;;;;;;1.81;85.10;98103.97;5070336;28;20204;-77
2023/02/26 11:34:15;;;;;;;1.50;1.40;;;;;;;1.86;83.46;98091.63;5069269;28;20239;-82
2023/02/26 11:36:44;;;;;;;1.20;1.10;;;;;;;1.85;82.21;98085.56;5071195;28;20220;-80
2023/02/26 11:39:17;;;;;;;1.90;1.40;;;;;;;1.81;81.14;98077.91;5070584;28;20215;-80
2023/02/26 11:41:47;;;;;;;1.60;1.50;;;;;;;1.91;85.00;98089.72;5069559;28;20236;-79
2023/02/26 11:44:17;;;;;;;1.40;1.30;;;;;;;1.96;83.48;98095.63;5071061;28;20260;-78